Time;durP1;ratioP1;P1;durP2;ratioP2;P2;SDS_P1;SDS_P2;PMS_P1;PMS_P2;Temp;Humidity;BMP_temperature;BMP_pressure;BME280_temperature;BME280_humidity;BME280_pressure;Samples;Min_cycle;Max_cycle;Signal;HPM_P1;HPM_P2
2024/03/02 00:00:39;;;;;;;1.00;1.00;;;;;;;5.83;100.00;99798.31;6085586;19;20010;-77
2024/03/02 00:02:42;;;;;;;4.03;1.55;;;;;;;5.77;100.00;99798.56;6087556;19;20047;-78
2024/03/02 00:04:49;;;;;;;;;;;;;;;5.80;100.00;99801.88;6087254;19;20031;-75
2024/03/02 00:06:55;;;;;;;1.00;1.00;;;;;;;5.75;100.00;99801.22;6087102;19;19922;-78
2024/03/02 00:09:01;;;;;;;1.23;0.93;;;;;;;5.77;100.00;99806.38;6086898;19;20006;-76
2024/03/02 00:11:06;;;;;;;1.63;1.20;;;;;;;5.73;100.00;99808.22;6083431;19;20007;-76
2024/03/02 00:13:12;;;;;;;1.10;1.00;;;;;;;5.68;100.00;99818.81;6088461;19;20231;-75
2024/03/02 00:15:39;;;;;;;1.00;0.90;;;;;;;5.63;100.00;99815.53;6078841;19;20010;-75
2024/03/02 00:17:45;;;;;;;1.00;1.00;;;;;;;5.60;100.00;99820.00;6082406;19;20078;-76
2024/03/02 00:19:50;;;;;;;3.60;0.82;;;;;;;5.61;100.00;99825.19;6084203;19;20002;-75
2024/03/02 00:21:55;;;;;;;1.05;1.02;;;;;;;5.61;100.00;99830.41;6086596;19;20011;-75
2024/03/02 00:24:02;;;;;;;1.38;1.30;;;;;;;5.65;100.00;99825.91;6087534;19;20022;-75
2024/03/02 00:26:08;;;;;;;1.30;0.90;;;;;;;5.61;100.00;99827.78;6085873;19;20502;-75
2024/03/02 00:28:16;;;;;;;3.35;1.00;;;;;;;5.55;100.00;99827.16;6084778;19;20014;-75
2024/03/02 00:30:49;;;;;;;0.73;0.73;;;;;;;5.56;100.00;99824.50;6084663;19;20010;-75
2024/03/02 00:32:55;;;;;;;3.10;1.10;;;;;;;5.56;100.00;99823.66;6084494;19;20055;-74
2024/03/02 00:35:02;;;;;;;1.38;1.27;;;;;;;5.48;100.00;99819.56;6083237;19;20763;-74
2024/03/02 00:37:08;;;;;;;0.90;0.90;;;;;;;5.52;100.00;99817.69;6083399;19;20676;-75
2024/03/02 00:39:15;;;;;;;2.58;0.90;;;;;;;5.50;100.00;99819.50;6082323;19;20016;-76
2024/03/02 00:41:24;;;;;;;1.75;1.10;;;;;;;5.45;100.00;99829.22;6082063;19;20014;-75
2024/03/02 00:43:43;;;;;;;0.98;0.90;;;;;;;5.47;100.00;99820.44;6084788;19;20030;-74
2024/03/02 00:45:52;;;;;;;1.58;1.10;;;;;;;5.47;100.00;99817.84;6083499;19;20009;-75
2024/03/02 00:47:57;;;;;;;1.42;1.27;;;;;;;5.53;100.00;99811.59;6084921;19;20020;-76
2024/03/02 00:50:05;;;;;;;1.65;1.25;;;;;;;5.45;100.00;99818.81;6084908;19;20010;-76
2024/03/02 00:52:23;;;;;;;1.85;1.75;;;;;;;5.44;100.00;99822.31;6082297;19;20064;-75
2024/03/02 00:54:32;;;;;;;1.00;1.00;;;;;;;5.43;100.00;99815.44;6085581;19;20014;-75
2024/03/02 00:56:38;;;;;;;1.63;1.23;;;;;;;5.44;100.00;99824.94;6085301;19;20007;-75
2024/03/02 00:58:41;;;;;;;1.15;1.10;;;;;;;5.45;100.00;99824.00;6081554;19;20015;-75
2024/03/02 01:00:46;;;;;;;1.00;1.00;;;;;;;5.37;100.00;99826.03;6085060;19;20025;-75
2024/03/02 01:02:52;;;;;;;1.85;1.40;;;;;;;5.39;100.00;99832.91;6086767;19;20475;-74
2024/03/02 01:04:57;;;;;;;0.90;0.90;;;;;;;5.37;100.00;99819.09;6084078;19;20035;-74
2024/03/02 01:07:05;;;;;;;1.50;1.00;;;;;;;5.37;100.00;99813.91;6085092;19;20014;-74
2024/03/02 01:09:12;;;;;;;1.48;1.13;;;;;;;5.34;100.00;99813.13;6083761;19;20559;-73
2024/03/02 01:11:14;;;;;;;0.90;0.90;;;;;;;5.30;100.00;99819.38;6085174;19;20011;-73
2024/03/02 01:13:20;;;;;;;1.15;0.90;;;;;;;5.30;100.00;99808.94;6084013;19;20006;-72
2024/03/02 01:15:25;;;;;;;0.73;0.73;;;;;;;5.31;100.00;99802.81;6084538;19;20033;-73
2024/03/02 01:17:30;;;;;;;0.90;0.90;;;;;;;5.36;100.00;99811.34;6083782;19;20027;-73
2024/03/02 01:19:35;;;;;;;1.35;1.23;;;;;;;5.30;100.00;99816.75;6083413;19;20021;-73
2024/03/02 01:21:40;;;;;;;1.23;1.10;;;;;;;5.34;100.00;99831.38;6082647;19;20401;-73
2024/03/02 01:23:48;;;;;;;1.30;0.80;;;;;;;5.30;100.00;99830.63;6081625;19;20684;-74
2024/03/02 01:25:51;;;;;;;0.82;0.82;;;;;;;5.26;100.00;99832.47;6082584;19;20019;-74
2024/03/02 01:27:56;;;;;;;0.85;0.82;;;;;;;5.33;100.00;99825.31;6084166;19;20029;-73
2024/03/02 01:30:01;;;;;;;1.55;1.20;;;;;;;5.28;100.00;99832.44;6084168;19;20483;-73
2024/03/02 01:32:07;;;;;;;1.95;1.52;;;;;;;5.29;100.00;99854.97;6083349;19;20459;-71
2024/03/02 01:34:12;;;;;;;1.98;1.15;;;;;;;5.31;100.00;99860.13;6084114;19;20034;-72
2024/03/02 01:36:17;;;;;;;1.33;1.23;;;;;;;5.30;100.00;99858.44;6083697;19;20106;-72
2024/03/02 01:38:20;;;;;;;2.88;1.38;;;;;;;5.36;100.00;99842.59;6082166;19;20109;-72
2024/03/02 01:40:28;;;;;;;2.28;1.67;;;;;;;5.27;100.00;99823.78;6081366;19;20015;-72
2024/03/02 01:42:33;;;;;;;1.90;1.67;;;;;;;5.27;100.00;99826.38;6083499;19;20494;-72
2024/03/02 01:44:35;;;;;;;3.05;2.10;;;;;;;5.31;100.00;99844.50;6084187;19;20010;-72
2024/03/02 01:46:40;;;;;;;4.95;2.25;;;;;;;5.27;100.00;99833.34;6082042;19;19999;-71
2024/03/02 01:48:45;;;;;;;2.83;1.92;;;;;;;5.22;100.00;99828.28;6083813;19;20034;-72
2024/03/02 01:50:50;;;;;;;3.47;2.15;;;;;;;5.23;100.00;99832.59;6084837;19;20007;-72
2024/03/02 01:52:53;;;;;;;4.35;2.38;;;;;;;5.27;100.00;99847.22;6081349;19;20006;-72
2024/03/02 01:54:58;;;;;;;4.07;2.30;;;;;;;5.22;100.00;99846.53;6084395;19;20030;-72
2024/03/02 01:57:04;;;;;;;6.00;2.58;;;;;;;5.27;100.00;99844.63;6082382;19;20007;-71
2024/03/02 01:59:09;;;;;;;4.38;2.35;;;;;;;5.22;100.00;99849.13;6080559;19;20007;-71
2024/03/02 02:01:14;;;;;;;5.93;2.63;;;;;;;5.19;100.00;99853.59;6081920;19;20038;-71
2024/03/02 02:03:19;;;;;;;3.53;2.40;;;;;;;5.24;100.00;99851.69;6083299;19;20008;-71
2024/03/02 02:05:25;;;;;;;4.72;2.67;;;;;;;5.22;100.00;99851.72;6085505;19;20012;-73
2024/03/02 02:07:30;;;;;;;4.53;2.20;;;;;;;5.23;100.00;99848.22;6081396;19;20003;-72
2024/03/02 02:09:35;;;;;;;4.75;2.63;;;;;;;5.26;100.00;99855.91;6085533;19;20045;-73
2024/03/02 02:11:40;;;;;;;4.90;2.15;;;;;;;5.28;100.00;99848.91;6084383;19;20027;-71
2024/03/02 02:13:47;;;;;;;4.50;2.47;;;;;;;5.30;100.00;99855.84;6084385;19;20575;-71
2024/03/02 02:15:53;;;;;;;5.57;2.58;;;;;;;5.31;100.00;99850.56;6083043;19;20014;-72
2024/03/02 02:17:59;;;;;;;3.13;2.47;;;;;;;5.27;100.00;99854.19;6081644;19;20134;-73
2024/03/02 02:20:05;;;;;;;4.93;2.90;;;;;;;5.28;100.00;99859.31;6024648;19;20030;-73
2024/03/02 02:22:12;;;;;;;3.42;2.45;;;;;;;5.32;100.00;99861.81;6083113;19;20017;-70
2024/03/02 02:24:17;;;;;;;2.53;2.17;;;;;;;5.32;100.00;99864.44;6082827;19;20097;-72
2024/03/02 02:26:22;;;;;;;3.42;2.28;;;;;;;5.35;100.00;99872.16;6081876;19;20633;-71
2024/03/02 02:28:27;;;;;;;2.83;2.05;;;;;;;5.38;100.00;99866.84;6082365;19;20006;-71
2024/03/02 02:30:35;;;;;;;5.35;2.30;;;;;;;5.33;100.00;99864.38;6083047;19;20010;-71
2024/03/02 02:32:37;;;;;;;4.40;2.20;;;;;;;5.32;100.00;99867.91;6084111;19;20012;-71
2024/03/02 02:34:42;;;;;;;2.63;2.00;;;;;;;5.32;100.00;99862.69;6085382;19;20689;-71
2024/03/02 02:36:47;;;;;;;4.72;2.22;;;;;;;5.33;100.00;99866.16;6083088;19;20482;-71
2024/03/02 02:38:53;;;;;;;5.03;2.20;;;;;;;5.33;100.00;99861.78;6083712;19;20269;-73
2024/03/02 02:40:58;;;;;;;3.30;1.85;;;;;;;5.35;100.00;99864.34;6083759;19;20007;-72
2024/03/02 02:43:03;;;;;;;2.90;1.80;;;;;;;5.36;100.00;99850.41;6083714;19;20029;-71
2024/03/02 02:45:09;;;;;;;4.95;2.10;;;;;;;5.35;100.00;99848.72;6084418;19;20002;-72
2024/03/02 02:47:14;;;;;;;1.48;1.38;;;;;;;5.36;100.00;99850.41;6084797;19;20021;-72
2024/03/02 02:49:23;;;;;;;3.30;2.08;;;;;;;5.34;100.00;99850.44;6083756;19;20042;-71
2024/03/02 02:51:31;;;;;;;4.22;2.10;;;;;;;5.35;100.00;99856.53;6083530;19;20010;-71
2024/03/02 02:53:40;;;;;;;5.85;2.20;;;;;;;5.26;100.00;99847.25;6085715;19;20501;-71
2024/03/02 02:55:47;;;;;;;3.33;1.83;;;;;;;5.28;100.00;99853.28;6086129;19;20038;-73
2024/03/02 02:57:53;;;;;;;2.03;1.67;;;;;;;5.33;100.00;99860.94;6088651;19;20011;-70
2024/03/02 03:00:01;;;;;;;1.48;1.38;;;;;;;5.33;100.00;99853.13;6086706;19;20098;-73
2024/03/02 03:02:06;;;;;;;1.77;1.45;;;;;;;5.27;100.00;99859.41;6089300;19;20018;-72
2024/03/02 03:04:11;;;;;;;2.95;1.67;;;;;;;5.32;100.00;99856.63;6088713;19;20380;-73
2024/03/02 03:06:16;;;;;;;1.42;1.23;;;;;;;5.33;100.00;99853.13;6083942;19;20019;-72
2024/03/02 03:08:23;;;;;;;2.38;2.13;;;;;;;5.32;100.00;99865.31;6088264;19;20021;-72
2024/03/02 03:10:28;;;;;;;2.55;1.90;;;;;;;5.32;100.00;99857.50;6088546;19;20010;-73
2024/03/02 03:12:33;;;;;;;2.10;1.80;;;;;;;5.32;100.00;99859.22;6085872;19;20021;-73
2024/03/02 03:14:38;;;;;;;1.25;1.20;;;;;;;5.35;100.00;99862.59;6086958;19;20015;-72
2024/03/02 03:16:43;;;;;;;3.00;1.98;;;;;;;5.37;100.00;99862.50;6086519;19;20006;-72
2024/03/02 03:18:45;;;;;;;3.22;1.83;;;;;;;5.40;100.00;99868.50;6087066;19;20078;-72
2024/03/02 03:20:50;;;;;;;2.67;1.70;;;;;;;5.41;100.00;99862.38;6086692;19;20013;-73
2024/03/02 03:22:55;;;;;;;2.58;1.75;;;;;;;5.44;100.00;99866.63;6087527;19;20324;-73
2024/03/02 03:25:00;;;;;;;3.38;1.80;;;;;;;5.43;100.00;99868.38;6088710;19;20034;-72
2024/03/02 03:27:05;;;;;;;1.75;1.42;;;;;;;5.46;100.00;99863.06;6087542;19;20046;-73
2024/03/02 03:29:13;;;;;;;2.75;1.67;;;;;;;5.47;100.00;99863.91;6087086;19;20028;-73
2024/03/02 03:31:18;;;;;;;2.97;1.85;;;;;;;5.48;100.00;99865.63;6087025;19;20016;-73
2024/03/02 03:33:23;;;;;;;2.72;1.70;;;;;;;5.47;100.00;99861.28;6089703;19;20006;-73
2024/03/02 03:35:30;;;;;;;3.30;1.75;;;;;;;5.48;100.00;99873.44;6086192;19;20352;-72
2024/03/02 03:37:33;;;;;;;3.03;1.75;;;;;;;5.49;100.00;99868.16;6086552;19;20007;-72
2024/03/02 03:39:39;;;;;;;4.30;1.70;;;;;;;5.49;100.00;99877.72;6087346;19;20526;-72
2024/03/02 03:41:45;;;;;;;6.10;2.10;;;;;;;5.49;100.00;99883.78;6087637;19;20528;-72
2024/03/02 03:43:50;;;;;;;4.40;2.08;;;;;;;5.49;100.00;99872.53;6088226;19;20018;-70
2024/03/02 03:45:57;;;;;;;2.35;1.70;;;;;;;5.50;100.00;99880.28;6089657;19;20003;-71
2024/03/02 03:48:02;;;;;;;2.45;1.80;;;;;;;5.50;100.00;99887.25;6087379;19;20094;-70
2024/03/02 03:50:09;;;;;;;2.90;1.80;;;;;;;5.49;100.00;99878.56;6088512;19;20003;-70
2024/03/02 03:52:14;;;;;;;6.38;2.22;;;;;;;5.54;100.00;99881.03;6084956;19;20010;-72
2024/03/02 03:54:19;;;;;;;3.08;1.70;;;;;;;5.53;100.00;99875.84;6088128;19;20034;-72
2024/03/02 03:56:25;;;;;;;2.78;1.77;;;;;;;5.47;100.00;99879.53;6088709;19;20106;-72
2024/03/02 03:58:29;;;;;;;1.98;1.60;;;;;;;5.52;100.00;99888.03;6087841;19;20006;-72
2024/03/02 04:00:38;;;;;;;2.88;1.80;;;;;;;5.44;100.00;99880.50;6089215;19;20367;-71
2024/03/02 04:02:45;;;;;;;1.70;1.60;;;;;;;5.43;100.00;99886.63;6087960;19;20034;-70
2024/03/02 04:04:50;;;;;;;4.68;1.50;;;;;;;5.46;100.00;99888.25;6086000;19;20078;-70
2024/03/02 04:06:55;;;;;;;2.22;1.58;;;;;;;5.44;100.00;99890.91;6088516;19;20010;-71
2024/03/02 04:09:00;;;;;;;4.93;1.85;;;;;;;5.40;100.00;99880.66;6088817;19;20030;-71
2024/03/02 04:11:07;;;;;;;3.85;1.58;;;;;;;5.40;100.00;99888.50;6087255;19;20002;-72
2024/03/02 04:13:12;;;;;;;3.70;1.90;;;;;;;5.36;100.00;99897.31;6084821;19;20015;-71
2024/03/02 04:15:18;;;;;;;1.60;1.50;;;;;;;5.38;100.00;99892.91;6088806;19;20003;-71
2024/03/02 04:17:23;;;;;;;3.80;2.05;;;;;;;5.35;100.00;99895.59;6085650;19;20425;-71
2024/03/02 04:19:31;;;;;;;3.08;1.70;;;;;;;5.28;100.00;99898.41;6087845;19;20018;-72
2024/03/02 04:21:37;;;;;;;1.65;1.52;;;;;;;5.27;100.00;99894.09;6085800;19;20006;-71
2024/03/02 04:23:42;;;;;;;2.83;1.95;;;;;;;5.32;100.00;99901.78;6087691;19;20382;-72
2024/03/02 04:25:47;;;;;;;1.52;1.42;;;;;;;5.35;100.00;99896.44;6083294;19;20551;-72
2024/03/02 04:27:52;;;;;;;1.92;1.70;;;;;;;5.26;100.00;99889.78;6084268;19;20039;-73
2024/03/02 04:29:57;;;;;;;1.63;1.52;;;;;;;5.24;100.00;99893.38;6086586;19;20012;-73
2024/03/02 04:32:02;;;;;;;1.90;1.70;;;;;;;5.21;100.00;99898.66;6088879;19;20027;-72
2024/03/02 04:34:08;;;;;;;3.35;1.83;;;;;;;5.19;100.00;99896.13;6087882;19;20019;-72
2024/03/02 04:36:15;;;;;;;2.88;2.20;;;;;;;5.21;100.00;99894.31;6087174;19;20018;-73
2024/03/02 04:38:20;;;;;;;1.65;1.45;;;;;;;5.20;100.00;99897.81;6089199;19;20057;-73
2024/03/02 04:40:27;;;;;;;4.53;1.77;;;;;;;5.14;100.00;99905.00;6088198;19;20006;-72
2024/03/02 04:42:29;;;;;;;3.60;1.90;;;;;;;5.18;100.00;99903.97;6086050;19;20069;-74
2024/03/02 04:44:34;;;;;;;1.58;1.30;;;;;;;5.18;100.00;99910.03;6084651;19;20448;-73
2024/03/02 04:46:39;;;;;;;1.52;1.42;;;;;;;5.14;100.00;99913.66;6087827;19;20569;-71
2024/03/02 04:48:44;;;;;;;1.75;1.60;;;;;;;5.13;100.00;99909.31;6087521;19;20035;-71
2024/03/02 04:50:49;;;;;;;2.97;1.67;;;;;;;5.17;100.00;99918.75;6087204;19;20027;-71
2024/03/02 04:52:57;;;;;;;1.55;1.45;;;;;;;5.16;100.00;99926.59;6085623;19;20019;-71
2024/03/02 04:55:24;;;;;;;2.20;1.70;;;;;;;5.23;100.00;99923.75;6085715;19;20017;-71
2024/03/02 04:57:29;;;;;;;2.40;1.60;;;;;;;5.25;100.00;99927.16;6085838;19;20014;-72
2024/03/02 04:59:34;;;;;;;1.85;1.27;;;;;;;5.26;100.00;99923.63;6085857;19;20014;-71
2024/03/02 05:01:36;;;;;;;2.10;1.40;;;;;;;5.24;100.00;99925.47;6084451;19;20395;-73
2024/03/02 05:03:41;;;;;;;1.55;1.45;;;;;;;5.28;100.00;99921.84;6083152;19;20720;-72
2024/03/02 05:05:47;;;;;;;1.92;1.65;;;;;;;5.22;100.00;99916.84;6085318;19;20006;-71
2024/03/02 05:07:50;;;;;;;2.42;1.40;;;;;;;5.18;100.00;99920.44;6085358;19;20384;-71
2024/03/02 05:09:57;;;;;;;4.65;1.50;;;;;;;5.18;100.00;99923.06;6084567;19;20098;-71
2024/03/02 05:12:17;;;;;;;2.00;1.70;;;;;;;5.21;100.00;99925.56;6085394;19;20018;-71
2024/03/02 05:14:22;;;;;;;2.63;1.85;;;;;;;5.20;100.00;99923.00;6086889;19;20024;-72
2024/03/02 05:16:25;;;;;;;1.60;1.38;;;;;;;5.25;100.00;99927.16;6084493;19;20446;-71
2024/03/02 05:18:30;;;;;;;3.70;2.10;;;;;;;5.19;100.00;99932.59;6084847;19;20014;-71
2024/03/02 05:20:35;;;;;;;3.08;1.92;;;;;;;5.15;100.00;99932.72;6080747;19;20011;-71
2024/03/02 05:22:40;;;;;;;2.13;1.50;;;;;;;5.11;100.00;99931.09;6084419;19;20011;-71
2024/03/02 05:24:45;;;;;;;2.35;1.70;;;;;;;5.11;100.00;99929.38;6083432;19;20038;-73
2024/03/02 05:26:50;;;;;;;2.00;1.77;;;;;;;5.06;100.00;99946.91;6085393;19;20022;-72
2024/03/02 05:28:55;;;;;;;2.50;1.75;;;;;;;5.04;100.00;99951.31;6086277;19;20014;-71
2024/03/02 05:31:00;;;;;;;1.65;1.55;;;;;;;5.05;100.00;99951.28;6083928;19;20083;-71
2024/03/02 05:33:08;;;;;;;2.97;1.55;;;;;;;5.07;100.00;99946.00;6084573;19;20013;-71
2024/03/02 05:35:14;;;;;;;2.40;1.60;;;;;;;5.09;100.00;99946.81;6086038;19;20384;-71
2024/03/02 05:37:22;;;;;;;2.17;1.52;;;;;;;5.03;100.00;99947.84;6083758;19;20245;-72
2024/03/02 05:39:27;;;;;;;8.80;1.73;;;;;;;5.03;100.00;99949.63;6081851;19;20026;-71
2024/03/02 05:41:32;;;;;;;3.78;1.80;;;;;;;4.93;100.00;99956.84;6081752;19;20006;-73
2024/03/02 05:43:40;;;;;;;2.03;1.70;;;;;;;4.89;100.00;99949.19;6082348;19;20509;-71
2024/03/02 05:45:45;;;;;;;2.38;1.60;;;;;;;4.93;100.00;99946.44;6087051;19;20006;-72
2024/03/02 05:47:50;;;;;;;2.72;1.33;;;;;;;4.99;100.00;99954.03;6082112;19;20065;-72
2024/03/02 05:49:55;;;;;;;2.60;1.40;;;;;;;4.97;100.00;99948.03;6081656;19;20002;-72
2024/03/02 05:52:02;;;;;;;1.45;1.35;;;;;;;5.01;100.00;99951.41;6084021;19;20063;-73
2024/03/02 05:54:08;;;;;;;4.18;1.60;;;;;;;5.04;100.00;99949.53;6082951;19;20050;-72
2024/03/02 05:56:13;;;;;;;2.15;1.50;;;;;;;4.99;100.00;99948.00;6082578;19;20251;-72
2024/03/02 05:58:27;;;;;;;3.60;1.65;;;;;;;5.02;100.00;99953.09;6082854;19;20027;-73
2024/03/02 06:00:35;;;;;;;1.30;1.30;;;;;;;5.02;100.00;99956.53;6086118;19;20025;-72
2024/03/02 06:02:42;;;;;;;1.85;1.42;;;;;;;5.09;100.00;99945.97;6083846;19;20018;-73
2024/03/02 06:04:46;;;;;;;1.90;1.58;;;;;;;5.11;100.00;99950.22;6082647;19;20095;-73
2024/03/02 06:06:54;;;;;;;7.72;2.58;;;;;;;5.06;100.00;99957.31;6084110;19;20015;-73
2024/03/02 06:08:59;;;;;;;2.15;1.30;;;;;;;5.14;100.00;99949.25;6081851;19;19998;-71
2024/03/02 06:11:04;;;;;;;4.53;1.60;;;;;;;5.15;100.00;99948.34;6084465;19;20010;-71
2024/03/02 06:13:06;;;;;;;2.40;1.75;;;;;;;5.12;100.00;99951.91;6084518;19;20050;-72
2024/03/02 06:15:12;;;;;;;2.33;1.60;;;;;;;5.13;100.00;99950.16;6081651;19;20033;-72
2024/03/02 06:17:19;;;;;;;2.67;1.08;;;;;;;5.14;100.00;99957.94;6083140;19;20529;-75
2024/03/02 06:19:27;;;;;;;1.48;1.30;;;;;;;5.13;100.00;99956.19;6085105;19;20038;-75
2024/03/02 06:21:32;;;;;;;2.30;1.33;;;;;;;5.11;100.00;99971.06;6082539;19;20435;-72
2024/03/02 06:23:38;;;;;;;2.00;1.30;;;;;;;5.13;100.00;99968.38;6083378;19;20038;-70
2024/03/02 06:25:43;;;;;;;1.40;1.30;;;;;;;5.21;100.00;99969.84;6083826;19;20027;-70
2024/03/02 06:27:48;;;;;;;2.50;2.00;;;;;;;5.18;100.00;99967.31;6090971;19;20006;-70
2024/03/02 06:29:53;;;;;;;1.40;1.30;;;;;;;5.19;100.00;99966.44;6089189;19;20364;-70
2024/03/02 06:32:00;;;;;;;1.15;1.08;;;;;;;5.22;100.00;99965.50;6087550;19;20083;-70
2024/03/02 06:34:08;;;;;;;4.10;1.90;;;;;;;5.26;100.00;99965.31;6090952;19;20053;-71
2024/03/02 06:36:15;;;;;;;1.40;1.30;;;;;;;5.23;100.00;99965.44;6089052;19;20030;-70
2024/03/02 06:38:20;;;;;;;2.03;1.40;;;;;;;5.25;100.00;99963.63;6087638;19;20045;-72
2024/03/02 06:40:26;;;;;;;2.40;1.75;;;;;;;5.32;100.00;99966.03;6087050;19;20006;-73
2024/03/02 06:42:32;;;;;;;4.00;1.90;;;;;;;5.26;100.00;99969.69;6087140;19;20039;-73
2024/03/02 06:44:38;;;;;;;5.55;1.55;;;;;;;5.29;100.00;99974.78;6090409;19;20010;-72
2024/03/02 06:46:40;;;;;;;1.35;1.30;;;;;;;5.31;100.00;99964.34;6090234;19;20010;-72
2024/03/02 06:48:45;;;;;;;2.78;1.20;;;;;;;5.24;100.00;99969.75;6089353;19;20015;-73
2024/03/02 06:50:54;;;;;;;2.45;1.60;;;;;;;5.24;100.00;99982.78;6086200;19;20006;-73
2024/03/02 06:52:57;;;;;;;2.63;1.52;;;;;;;5.21;100.00;99980.28;6084593;19;20470;-73
2024/03/02 06:55:02;;;;;;;6.55;1.52;;;;;;;5.18;100.00;99977.75;6089262;19;20003;-72
2024/03/02 06:57:07;;;;;;;2.83;1.33;;;;;;;5.13;100.00;99979.63;6088899;19;20015;-73
2024/03/02 06:59:12;;;;;;;1.50;1.40;;;;;;;5.17;100.00;99983.03;6089569;19;20006;-72
2024/03/02 07:01:17;;;;;;;8.93;1.67;;;;;;;5.07;100.00;99985.06;6089923;19;20330;-72
2024/03/02 07:03:23;;;;;;;1.27;1.20;;;;;;;5.04;100.00;99985.16;6088705;19;20086;-72
2024/03/02 07:05:29;;;;;;;2.60;1.50;;;;;;;5.00;100.00;99984.41;6089854;19;20042;-72
2024/03/02 07:07:37;;;;;;;6.43;1.90;;;;;;;4.99;100.00;99989.66;6088353;19;20033;-73
2024/03/02 07:09:39;;;;;;;1.83;1.40;;;;;;;5.03;100.00;100004.28;6087378;19;20011;-73
2024/03/02 07:11:44;;;;;;;2.75;1.50;;;;;;;5.01;100.00;99990.47;6089836;19;20558;-74
2024/03/02 07:13:52;;;;;;;1.35;1.25;;;;;;;5.06;100.00;99993.78;6090502;19;20026;-73
2024/03/02 07:16:21;;;;;;;1.63;1.52;;;;;;;5.03;100.00;99994.72;6083956;19;20034;-72
2024/03/02 07:18:28;;;;;;;1.17;1.10;;;;;;;5.02;100.00;99997.38;6089637;19;20019;-72
2024/03/02 07:20:33;;;;;;;2.60;1.48;;;;;;;4.98;100.00;100000.97;6088042;19;20690;-73
2024/03/02 07:22:41;;;;;;;3.25;1.50;;;;;;;4.95;100.00;99998.44;6089024;19;19999;-73
2024/03/02 07:24:49;;;;;;;2.42;1.58;;;;;;;4.99;100.00;100007.88;6089835;19;20006;-72
2024/03/02 07:26:54;;;;;;;2.05;1.52;;;;;;;5.02;100.00;99999.97;6087442;19;20015;-72
2024/03/02 07:28:59;;;;;;;1.35;1.25;;;;;;;5.06;100.00;100012.00;6088123;19;20026;-72
2024/03/02 07:31:06;;;;;;;3.40;1.40;;;;;;;5.03;100.00;100002.53;6088293;19;20360;-73
2024/03/02 07:33:11;;;;;;;2.58;1.90;;;;;;;5.02;100.00;100010.38;6087811;19;20010;-74
2024/03/02 07:35:18;;;;;;;1.50;1.40;;;;;;;5.10;100.00;100013.59;6086608;19;20260;-73
2024/03/02 07:37:23;;;;;;;2.53;1.48;;;;;;;5.08;100.00;100018.00;6087115;19;20037;-74
2024/03/02 07:39:29;;;;;;;1.70;1.60;;;;;;;5.06;100.00;100020.66;6084743;19;20014;-75
2024/03/02 07:41:34;;;;;;;1.75;1.65;;;;;;;5.12;100.00;100023.97;6087139;19;20018;-73
2024/03/02 07:43:39;;;;;;;3.10;1.60;;;;;;;5.13;100.00;100023.91;6087705;19;20078;-75
2024/03/02 07:45:44;;;;;;;2.15;1.40;;;;;;;5.16;100.00;100016.03;6087751;19;20024;-75
2024/03/02 07:47:50;;;;;;;5.20;1.80;;;;;;;5.23;100.00;100030.53;6087990;19;20341;-75
2024/03/02 07:49:55;;;;;;;1.65;1.10;;;;;;;5.20;100.00;100020.22;6088679;19;20003;-74
2024/03/02 07:52:00;;;;;;;1.70;1.60;;;;;;;5.21;100.00;100019.34;6086402;19;20030;-74
2024/03/02 07:54:09;;;;;;;4.55;2.40;;;;;;;5.27;100.00;100024.34;6085688;19;19998;-74
2024/03/02 07:56:21;;;;;;;4.25;1.42;;;;;;;5.26;100.00;100020.03;6084619;19;20106;-76
2024/03/02 07:58:26;;;;;;;;;;;;;;;5.28;100.00;100015.63;6085271;19;20360;-73
2024/03/02 08:00:29;;;;;;;3.63;1.95;;;;;;;5.32;100.00;100015.50;6087808;19;19966;-75
2024/03/02 08:02:34;;;;;;;1.77;1.67;;;;;;;5.35;100.00;100010.22;6084929;19;20549;-76
2024/03/02 08:04:39;;;;;;;4.15;1.63;;;;;;;5.35;100.00;100013.69;6083069;19;20027;-75
2024/03/02 08:06:44;;;;;;;6.88;1.88;;;;;;;5.46;100.00;100019.38;6087325;19;20711;-75
2024/03/02 08:08:49;;;;;;;1.00;1.00;;;;;;;5.49;100.00;100010.63;6084770;19;20439;-75
2024/03/02 08:10:55;;;;;;;2.40;1.40;;;;;;;5.47;100.00;100013.25;6085318;19;20462;-73
2024/03/02 08:13:04;;;;;;;4.25;1.65;;;;;;;5.48;100.00;100011.53;6087580;19;20007;-74
2024/03/02 08:15:10;;;;;;;1.80;1.48;;;;;;;5.57;100.00;100016.44;6086131;19;20002;-73
2024/03/02 08:17:13;;;;;;;4.70;1.73;;;;;;;5.65;100.00;100024.84;6085100;19;20010;-74
2024/03/02 08:19:18;;;;;;;5.35;1.90;;;;;;;5.74;100.00;100034.13;6087044;19;20050;-74
2024/03/02 08:21:23;;;;;;;1.30;1.20;;;;;;;5.76;100.00;100023.63;6086702;19;20010;-74
2024/03/02 08:23:29;;;;;;;2.08;1.70;;;;;;;5.80;100.00;100017.44;6082900;19;20017;-75
2024/03/02 08:25:34;;;;;;;2.45;1.40;;;;;;;5.91;100.00;100030.94;6087593;19;20023;-74
2024/03/02 08:27:39;;;;;;;5.35;1.52;;;;;;;6.00;100.00;100019.38;6089476;19;20074;-76
2024/03/02 08:29:47;;;;;;;3.67;1.85;;;;;;;6.11;100.00;100014.66;6087961;19;20017;-75
2024/03/02 08:31:52;;;;;;;6.18;1.75;;;;;;;6.11;100.00;100018.09;6085897;19;20106;-76
2024/03/02 08:34:00;;;;;;;5.07;1.67;;;;;;;6.24;100.00;100012.44;6087404;19;20018;-75
2024/03/02 08:36:09;;;;;;;4.40;1.42;;;;;;;6.28;100.00;100020.09;6088622;19;20611;-77
2024/03/02 08:38:15;;;;;;;2.60;1.65;;;;;;;6.31;100.00;100021.75;6088764;19;20024;-74
2024/03/02 08:40:20;;;;;;;1.42;1.17;;;;;;;6.50;100.00;100020.19;6086440;19;20339;-74
2024/03/02 08:42:24;;;;;;;5.95;1.75;;;;;;;6.57;100.00;100019.03;6088336;19;20010;-74
2024/03/02 08:44:29;;;;;;;1.50;1.40;;;;;;;6.65;100.00;100017.91;6089837;19;20023;-74
2024/03/02 08:46:34;;;;;;;1.50;1.40;;;;;;;6.70;100.00;100019.41;6088363;19;20029;-76
2024/03/02 08:48:39;;;;;;;6.32;2.47;;;;;;;6.73;100.00;100019.31;6092775;19;20094;-75
2024/03/02 08:50:44;;;;;;;3.50;1.48;;;;;;;6.82;100.00;100021.59;6090497;19;20105;-75
2024/03/02 08:52:50;;;;;;;3.40;1.60;;;;;;;6.81;100.00;100019.00;6087114;19;20006;-73
2024/03/02 08:54:52;;;;;;;5.82;1.70;;;;;;;7.00;100.00;100017.41;6088293;19;20018;-74
2024/03/02 08:56:57;;;;;;;2.13;1.88;;;;;;;7.06;100.00;100029.38;6087407;19;20106;-73
2024/03/02 08:59:03;;;;;;;2.70;1.52;;;;;;;7.18;100.00;100013.19;6085569;19;20014;-77
2024/03/02 09:01:08;;;;;;;4.53;1.80;;;;;;;7.24;100.00;100022.56;6088831;19;20011;-78
2024/03/02 09:03:17;;;;;;;2.95;1.45;;;;;;;7.29;100.00;100012.78;6085881;19;20007;-74
2024/03/02 09:05:22;;;;;;;1.40;1.30;;;;;;;7.28;100.00;100032.00;6084572;19;20073;-74
2024/03/02 09:07:30;;;;;;;2.47;1.45;;;;;;;7.20;100.00;100014.00;6082591;19;20014;-73
2024/03/02 09:09:33;;;;;;;3.47;1.40;;;;;;;7.36;100.00;100026.47;6081865;19;20018;-74
2024/03/02 09:11:38;;;;;;;1.45;1.38;;;;;;;7.60;100.00;100038.53;6083230;19;20392;-74
2024/03/02 09:13:44;;;;;;;1.63;1.48;;;;;;;7.61;100.00;100031.53;6083406;19;20019;-76
2024/03/02 09:15:49;;;;;;;2.33;1.40;;;;;;;7.81;100.00;100038.56;6084134;19;20007;-75
2024/03/02 09:17:54;;;;;;;6.78;1.88;;;;;;;7.61;100.00;100048.09;6084748;19;20014;-74
2024/03/02 09:20:04;;;;;;;4.57;2.05;;;;;;;7.53;100.00;100039.72;6083944;19;20470;-75
2024/03/02 09:22:13;;;;;;;3.13;1.80;;;;;;;7.64;100.00;100034.88;6080661;19;20011;-75
2024/03/02 09:24:18;;;;;;;2.00;1.38;;;;;;;7.78;100.00;100042.16;6082353;19;20011;-74
2024/03/02 09:26:24;;;;;;;3.22;1.30;;;;;;;7.78;100.00;100039.53;6082927;19;20016;-75
2024/03/02 09:28:29;;;;;;;3.95;1.50;;;;;;;8.07;100.00;100035.69;6084554;19;20475;-75
2024/03/02 09:30:36;;;;;;;3.42;1.80;;;;;;;8.43;100.00;100042.03;6084550;19;20477;-74
2024/03/02 09:32:41;;;;;;;3.13;1.88;;;;;;;8.40;100.00;100036.91;6080139;19;20013;-75
2024/03/02 09:34:48;;;;;;;2.05;1.33;;;;;;;8.29;100.00;100039.97;6082960;19;20011;-75
2024/03/02 09:36:56;;;;;;;2.25;1.25;;;;;;;8.27;100.00;100042.69;6083725;19;20336;-74
2024/03/02 09:39:03;;;;;;;2.17;1.50;;;;;;;8.56;100.00;100030.94;6083467;19;20490;-74
2024/03/02 09:41:09;;;;;;;5.40;1.90;;;;;;;8.40;100.00;100037.78;6082311;19;20010;-74
2024/03/02 09:43:14;;;;;;;8.52;1.63;;;;;;;8.62;100.00;100032.44;6082422;19;20569;-75
2024/03/02 09:45:22;;;;;;;1.02;1.02;;;;;;;8.59;100.00;100042.19;6082589;19;20485;-75
2024/03/02 09:47:27;;;;;;;2.95;1.55;;;;;;;8.53;100.00;100048.53;6086146;19;20006;-74
2024/03/02 09:49:30;;;;;;;2.53;1.45;;;;;;;8.72;100.00;100053.81;6086561;19;20427;-76
2024/03/02 09:51:36;;;;;;;2.75;1.60;;;;;;;8.74;100.00;100057.19;6088885;19;20501;-75